createdAt,value
2023-04-18T00:01:56.567Z,48.79
2023-04-18T00:04:27.536Z,48.83
2023-04-18T00:06:57.770Z,49.03
2023-04-18T00:09:27.943Z,48.72
2023-04-18T00:12:00.214Z,48.64
2023-04-18T00:14:30.599Z,49.20
2023-04-18T00:17:02.187Z,49.00
2023-04-18T00:19:32.435Z,48.98
2023-04-18T00:22:03.285Z,48.88
2023-04-18T00:24:33.428Z,48.91
2023-04-18T00:27:05.303Z,49.00
2023-04-18T00:29:35.474Z,48.92
2023-04-18T00:32:05.714Z,49.03
2023-04-18T00:34:35.661Z,49.25
2023-04-18T00:37:05.651Z,49.10
2023-04-18T00:39:37.000Z,49.21
2023-04-18T00:42:09.011Z,48.94
2023-04-18T00:44:38.738Z,49.32
2023-04-18T00:47:08.934Z,49.14
2023-04-18T00:49:39.396Z,49.00
2023-04-18T00:52:09.330Z,49.05
2023-04-18T00:54:40.093Z,49.09
2023-04-18T00:57:11.925Z,49.01
2023-04-18T00:59:41.669Z,49.31
2023-04-18T01:02:11.784Z,49.26
2023-04-18T01:04:44.708Z,49.15
2023-04-18T01:07:15.555Z,49.30
2023-04-18T01:09:49.295Z,49.29
2023-04-18T01:12:21.370Z,49.15
2023-04-18T01:14:51.143Z,49.18
2023-04-18T01:17:23.020Z,49.18
2023-04-18T01:19:53.116Z,49.07
2023-04-18T01:22:23.715Z,49.21
2023-04-18T01:24:56.230Z,49.20
2023-04-18T01:27:25.893Z,49.23
2023-04-18T01:29:56.072Z,49.29
2023-04-18T01:32:26.120Z,49.58
2023-04-18T01:34:56.055Z,49.53
2023-04-18T01:37:26.251Z,49.48
2023-04-18T01:39:58.561Z,49.45
2023-04-18T01:42:28.112Z,49.42
2023-04-18T01:44:58.280Z,49.32
2023-04-18T01:47:27.964Z,49.39
2023-04-18T01:49:58.569Z,49.37
2023-04-18T01:52:28.218Z,49.44
2023-04-18T01:54:59.900Z,49.52
2023-04-18T01:57:29.959Z,49.48
2023-04-18T01:59:59.557Z,49.71
2023-04-18T02:02:29.523Z,49.35
2023-04-18T02:04:59.298Z,49.48
2023-04-18T02:07:28.946Z,49.61
2023-04-18T02:10:00.638Z,49.73
2023-04-18T02:12:30.761Z,49.59
2023-04-18T02:15:00.878Z,49.65
2023-04-18T02:17:31.853Z,49.68
2023-04-18T02:20:02.114Z,49.65
2023-04-18T02:22:32.335Z,49.69
2023-04-18T02:25:04.855Z,49.78
2023-04-18T02:27:35.072Z,49.79
2023-04-18T02:30:05.300Z,49.79
2023-04-18T02:32:35.014Z,49.73
2023-04-18T02:35:05.125Z,49.78
2023-04-18T02:37:34.834Z,49.73
2023-04-18T02:40:07.593Z,49.90
2023-04-18T02:42:37.719Z,49.89
2023-04-18T02:45:09.777Z,50.02
2023-04-18T02:47:55.419Z,49.93
2023-04-18T02:50:26.068Z,50.17
2023-04-18T02:52:56.289Z,49.96
2023-04-18T02:55:28.378Z,50.08
2023-04-18T02:57:58.869Z,49.93
2023-04-18T03:00:29.197Z,50.04
2023-04-18T03:02:59.341Z,50.13
2023-04-18T03:05:29.100Z,49.78
2023-04-18T03:07:59.182Z,50.10
2023-04-18T03:10:31.602Z,50.00
2023-04-18T03:13:02.280Z,50.08
2023-04-18T03:15:33.369Z,50.24
2023-04-18T03:18:03.183Z,50.16
2023-04-18T03:20:33.415Z,50.17
2023-04-18T03:23:03.052Z,50.14
2023-04-18T03:25:35.305Z,50.10
2023-04-18T03:28:05.237Z,50.09
2023-04-18T03:30:35.499Z,50.04
2023-04-18T03:33:05.825Z,49.98
2023-04-18T03:35:35.826Z,49.97
2023-04-18T03:38:05.559Z,50.17
2023-04-18T03:40:37.192Z,49.90
2023-04-18T03:43:07.108Z,50.05
2023-04-18T03:45:37.039Z,50.00
2023-04-18T03:48:07.750Z,50.09
2023-04-18T03:50:37.836Z,50.12
2023-04-18T03:53:08.001Z,49.99
2023-04-18T03:55:40.133Z,50.09
2023-04-18T03:58:09.721Z,49.97
2023-04-18T04:00:39.861Z,50.11
2023-04-18T04:03:09.668Z,50.01
2023-04-18T04:05:39.818Z,50.07
2023-04-18T04:08:10.187Z,50.08
2023-04-18T04:10:41.695Z,50.26
2023-04-18T04:13:11.814Z,50.14
2023-04-18T04:15:42.265Z,50.10
2023-04-18T04:18:12.269Z,50.20
2023-04-18T04:20:42.367Z,50.15
2023-04-18T04:23:12.260Z,50.27
2023-04-18T04:25:46.790Z,50.18
2023-04-18T04:28:17.227Z,50.21
2023-04-18T04:30:47.374Z,50.18
2023-04-18T04:33:17.433Z,50.40
2023-04-18T04:35:47.730Z,50.23
2023-04-18T04:38:20.341Z,50.48
2023-04-18T04:40:53.330Z,50.36
2023-04-18T04:43:23.482Z,50.47
2023-04-18T04:45:53.941Z,50.56
2023-04-18T04:48:25.076Z,50.70
2023-04-18T04:50:57.070Z,50.45
2023-04-18T04:53:30.602Z,50.38
2023-04-18T04:56:02.385Z,50.11
2023-04-18T04:58:32.867Z,50.43
2023-04-18T05:01:03.176Z,50.34
2023-04-18T05:03:33.506Z,50.39
2023-04-18T05:06:03.750Z,50.63
2023-04-18T05:08:33.782Z,50.44
2023-04-18T05:11:07.038Z,50.39
2023-04-18T05:13:37.148Z,50.49
2023-04-18T05:16:08.449Z,50.87
2023-04-18T05:18:39.628Z,50.70
2023-04-18T05:21:09.917Z,50.61
2023-04-18T05:23:40.390Z,50.74
2023-04-18T05:26:12.540Z,50.49
2023-04-18T05:28:42.803Z,50.52
2023-04-18T05:31:12.791Z,50.41
2023-04-18T05:33:43.128Z,50.58
2023-04-18T05:36:13.247Z,50.23
2023-04-18T05:38:43.138Z,50.37
2023-04-18T05:41:14.583Z,50.39
2023-04-18T05:43:48.372Z,50.55
2023-04-18T05:46:21.149Z,50.54
2023-04-18T05:48:51.349Z,50.43
2023-04-18T05:51:21.316Z,50.21
2023-04-18T05:53:51.550Z,50.20
2023-04-18T05:56:23.796Z,50.26
2023-04-18T05:58:53.624Z,49.96
2023-04-18T06:01:24.279Z,50.05
2023-04-18T06:03:54.547Z,49.94
2023-04-18T06:06:25.092Z,50.19
2023-04-18T06:08:54.969Z,49.92
2023-04-18T06:11:27.127Z,50.11
2023-04-18T06:13:57.330Z,50.16
2023-04-18T06:16:27.610Z,50.28
2023-04-18T06:19:00.857Z,50.17
2023-04-18T06:21:32.050Z,49.87
2023-04-18T06:24:02.521Z,50.07
2023-04-18T06:26:34.650Z,49.79
2023-04-18T06:29:04.357Z,49.92
2023-04-18T06:31:34.919Z,49.95
2023-04-18T06:34:05.132Z,49.65
2023-04-18T06:36:35.377Z,49.60
2023-04-18T06:39:05.470Z,49.35
2023-04-18T06:41:37.596Z,49.26
2023-04-18T06:44:07.972Z,49.58
2023-04-18T06:46:38.206Z,49.29
2023-04-18T06:49:08.419Z,48.81
2023-04-18T06:51:38.089Z,48.94
2023-04-18T06:54:08.250Z,49.24
2023-04-18T06:56:40.156Z,48.71
2023-04-18T06:59:10.224Z,48.58
2023-04-18T07:01:44.095Z,48.56
2023-04-18T07:04:13.936Z,48.78
2023-04-18T07:06:45.861Z,48.77
2023-04-18T07:09:15.420Z,48.43
2023-04-18T07:11:46.879Z,48.26
2023-04-18T07:14:17.153Z,48.31
2023-04-18T07:16:47.442Z,48.31
2023-04-18T07:19:17.527Z,48.76
2023-04-18T07:21:47.576Z,48.34
2023-04-18T07:24:17.901Z,48.07
2023-04-18T07:26:49.935Z,48.45
2023-04-18T07:29:20.672Z,48.19
2023-04-18T07:31:51.631Z,47.71
2023-04-18T07:34:22.450Z,47.67
2023-04-18T07:36:52.305Z,47.97
2023-04-18T07:39:22.962Z,47.63
2023-04-18T07:41:55.116Z,47.64
2023-04-18T07:44:25.643Z,47.61
2023-04-18T07:46:55.652Z,47.25
2023-04-18T07:49:25.964Z,47.54
2023-04-18T07:51:56.205Z,46.98
2023-04-18T07:54:26.522Z,47.55
2023-04-18T07:56:58.733Z,46.89
2023-04-18T07:59:28.654Z,46.77
2023-04-18T08:01:58.895Z,47.25
2023-04-18T08:04:30.312Z,47.23
2023-04-18T08:07:00.399Z,46.56
2023-04-18T08:09:30.319Z,46.78
2023-04-18T08:12:02.824Z,45.87
2023-04-18T08:14:32.727Z,46.63
2023-04-18T08:17:04.088Z,46.28
2023-04-18T08:19:34.371Z,46.31
2023-04-18T08:22:12.580Z,45.90
2023-04-18T08:24:57.238Z,46.19
2023-04-18T08:27:35.291Z,45.76
2023-04-18T08:30:06.556Z,45.69
2023-04-18T08:32:37.695Z,45.84
2023-04-18T08:35:08.702Z,45.21
2023-04-18T08:37:38.866Z,45.77
2023-04-18T08:40:10.085Z,45.69
2023-04-18T08:42:46.297Z,45.58
2023-04-18T08:45:16.786Z,45.11
2023-04-18T08:47:46.812Z,45.44
2023-04-18T08:50:17.581Z,45.37
2023-04-18T08:52:50.233Z,45.42
2023-04-18T08:55:22.801Z,44.63
2023-04-18T08:57:57.919Z,45.16
2023-04-18T09:00:28.002Z,45.06
2023-04-18T09:02:58.875Z,45.07
2023-04-18T09:05:30.212Z,44.28
2023-04-18T09:08:00.408Z,44.38
2023-04-18T09:10:33.309Z,44.53
2023-04-18T09:13:06.534Z,44.50
2023-04-18T09:15:36.727Z,44.05
2023-04-18T09:18:13.144Z,44.27
2023-04-18T09:20:44.310Z,43.96
2023-04-18T09:23:24.969Z,43.87
2023-04-18T09:25:55.189Z,44.37
2023-04-18T09:28:30.700Z,44.04
2023-04-18T09:31:09.655Z,43.69
2023-04-18T09:33:40.600Z,43.34
2023-04-18T09:36:21.897Z,43.34
2023-04-18T09:38:56.627Z,43.86
2023-04-18T09:41:27.864Z,43.79
2023-04-18T09:44:15.270Z,43.30
2023-04-18T09:46:47.582Z,43.70
2023-04-18T09:49:18.261Z,42.82
2023-04-18T09:51:49.320Z,43.16
2023-04-18T09:54:21.042Z,42.96
2023-04-18T09:56:54.497Z,43.35
2023-04-18T09:59:50.985Z,43.12
2023-04-18T10:02:25.132Z,43.22
2023-04-18T10:04:58.372Z,43.06
2023-04-18T10:07:29.596Z,42.70
2023-04-18T10:09:59.782Z,43.01
2023-04-18T10:12:30.305Z,42.28
2023-04-18T10:15:03.520Z,42.60
2023-04-18T10:17:55.995Z,42.12
2023-04-18T10:20:32.732Z,42.17
2023-04-18T10:23:23.263Z,42.06
2023-04-18T10:25:54.557Z,42.37
2023-04-18T10:28:24.948Z,42.68
2023-04-18T10:31:04.071Z,41.99
2023-04-18T10:33:42.005Z,41.99
2023-04-18T10:36:21.205Z,42.40
2023-04-18T10:38:54.207Z,42.23
2023-04-18T10:41:28.005Z,41.78
2023-04-18T10:44:22.896Z,41.92
2023-04-18T10:47:27.131Z,42.42
2023-04-18T10:50:06.176Z,41.67
2023-04-18T10:52:37.016Z,42.20
2023-04-18T10:55:30.552Z,41.74
2023-04-18T10:58:02.900Z,41.39
2023-04-18T11:00:34.323Z,42.04
2023-04-18T11:03:06.498Z,41.43
2023-04-18T11:05:37.216Z,41.66
2023-04-18T11:08:07.974Z,41.33
2023-04-18T11:10:38.204Z,41.04
2023-04-18T11:13:08.931Z,41.69
2023-04-18T11:15:40.279Z,40.95
2023-04-18T11:18:13.643Z,40.91
2023-04-18T11:20:51.154Z,41.47
2023-04-18T11:23:25.204Z,41.32
2023-04-18T11:25:57.083Z,41.15
2023-04-18T11:28:29.071Z,40.54
2023-04-18T11:31:03.398Z,40.65
2023-04-18T11:33:35.412Z,41.20
2023-04-18T11:36:07.178Z,40.91
2023-04-18T11:38:38.336Z,40.81
2023-04-18T11:41:14.326Z,41.03
2023-04-18T11:43:47.451Z,40.84
2023-04-18T11:46:17.675Z,40.97
2023-04-18T11:48:50.783Z,40.25
2023-04-18T11:51:38.930Z,40.65
2023-04-18T11:54:29.190Z,40.33
2023-04-18T11:56:59.847Z,41.02
2023-04-18T11:59:29.819Z,40.68
2023-04-18T12:02:15.329Z,40.40
2023-04-18T12:05:03.375Z,40.84
2023-04-18T12:07:42.880Z,40.82
2023-04-18T12:10:29.830Z,40.40
2023-04-18T12:13:01.332Z,40.84
2023-04-18T12:15:32.325Z,40.28
2023-04-18T12:18:04.783Z,40.75
2023-04-18T12:20:46.538Z,40.74
2023-04-18T12:23:34.066Z,40.71
2023-04-18T12:26:06.168Z,40.53
2023-04-18T12:28:38.370Z,40.55
2023-04-18T12:31:08.185Z,40.77
2023-04-18T12:33:39.295Z,40.73
2023-04-18T12:36:12.642Z,40.69
2023-04-18T12:38:42.926Z,40.52
2023-04-18T12:41:13.374Z,41.07
2023-04-18T12:43:43.350Z,40.38
2023-04-18T12:46:13.654Z,40.99
2023-04-18T12:48:44.527Z,40.75
2023-04-18T12:51:16.484Z,41.13
2023-04-18T12:53:46.754Z,41.00
2023-04-18T12:56:17.320Z,41.02
2023-04-18T12:58:47.672Z,40.83
2023-04-18T13:01:18.447Z,40.46
2023-04-18T13:03:56.493Z,40.79
2023-04-18T13:06:35.995Z,40.24
2023-04-18T13:09:06.293Z,40.16
2023-04-18T13:11:36.661Z,40.24
2023-04-18T13:14:06.594Z,40.24
2023-04-18T13:16:36.836Z,40.64
2023-04-18T13:19:06.929Z,40.59
2023-04-18T13:21:39.123Z,40.03
2023-04-18T13:24:10.104Z,39.95
2023-04-18T13:26:39.669Z,40.19
2023-04-18T13:29:09.885Z,40.58
2023-04-18T13:31:39.666Z,40.55
2023-04-18T13:34:09.624Z,40.24
2023-04-18T13:36:41.609Z,40.22
2023-04-18T13:39:12.727Z,40.23
2023-04-18T13:41:42.837Z,39.71
2023-04-18T13:44:13.141Z,40.09
2023-04-18T13:46:43.993Z,39.81
2023-04-18T13:49:14.646Z,39.81
2023-04-18T13:51:47.017Z,39.64
2023-04-18T13:54:18.190Z,39.63
2023-04-18T13:56:48.831Z,39.86
2023-04-18T13:59:18.452Z,40.28
2023-04-18T14:01:49.498Z,39.88
2023-04-18T14:04:19.743Z,39.77
2023-04-18T14:06:52.307Z,40.46
2023-04-18T14:09:22.624Z,40.10
2023-04-18T14:11:52.890Z,40.19
2023-04-18T14:14:23.162Z,39.64
2023-04-18T14:16:53.979Z,39.73
2023-04-18T14:19:24.257Z,40.18
2023-04-18T14:21:56.441Z,39.79
2023-04-18T14:24:26.630Z,40.20
2023-04-18T14:26:56.353Z,39.85
2023-04-18T14:29:26.640Z,40.26
2023-04-18T14:31:56.677Z,40.22
2023-04-18T14:34:27.178Z,40.37
2023-04-18T14:36:59.155Z,39.73
2023-04-18T14:39:28.775Z,40.40
2023-04-18T14:41:58.731Z,40.21
2023-04-18T14:44:28.733Z,39.80
2023-04-18T14:46:58.506Z,40.19
2023-04-18T14:49:28.662Z,40.46
2023-04-18T14:52:00.708Z,39.96
2023-04-18T14:54:32.621Z,39.95
2023-04-18T14:57:03.506Z,40.40
2023-04-18T14:59:33.399Z,40.00
2023-04-18T15:02:03.302Z,40.24
2023-04-18T15:04:33.205Z,40.48
2023-04-18T15:07:04.680Z,40.20
2023-04-18T15:09:39.369Z,40.32
2023-04-18T15:12:10.208Z,39.89
2023-04-18T15:14:40.724Z,39.87
2023-04-18T15:17:10.316Z,40.37
2023-04-18T15:19:40.211Z,40.20
2023-04-18T15:22:12.110Z,40.10
2023-04-18T15:24:42.512Z,40.25
2023-04-18T15:27:13.308Z,40.34
2023-04-18T15:29:43.033Z,40.10
2023-04-18T15:32:13.075Z,40.24
2023-04-18T15:34:42.791Z,39.91
2023-04-18T15:37:14.730Z,39.76
2023-04-18T15:39:44.655Z,39.69
2023-04-18T15:42:14.838Z,39.74
2023-04-18T15:44:45.043Z,39.42
2023-04-18T15:47:15.067Z,39.70
2023-04-18T15:49:45.238Z,39.87
2023-04-18T15:52:18.247Z,39.80
2023-04-18T15:54:48.672Z,39.49
2023-04-18T15:57:18.442Z,39.83
2023-04-18T15:59:48.461Z,39.69
2023-04-18T16:02:18.890Z,39.13
2023-04-18T16:04:49.125Z,39.65
2023-04-18T16:07:21.540Z,39.03
2023-04-18T16:09:51.777Z,39.42
2023-04-18T16:12:21.469Z,39.53
2023-04-18T16:14:51.772Z,39.12
2023-04-18T16:17:21.674Z,39.04
2023-04-18T16:19:51.987Z,39.37
2023-04-18T16:22:24.129Z,38.91
2023-04-18T16:24:54.340Z,38.87
2023-04-18T16:27:24.540Z,39.25
2023-04-18T16:29:55.392Z,38.98
2023-04-18T16:32:25.497Z,38.97
2023-04-18T16:34:55.733Z,39.16
2023-04-18T16:37:27.900Z,38.79
2023-04-18T16:39:58.712Z,38.96
2023-04-18T16:42:28.411Z,39.36
2023-04-18T16:44:58.568Z,39.46
2023-04-18T16:47:29.049Z,39.37
2023-04-18T16:49:59.890Z,39.54
2023-04-18T16:52:32.108Z,39.30
2023-04-18T16:55:02.359Z,39.46
2023-04-18T16:57:32.603Z,39.23
2023-04-18T17:00:03.559Z,39.55
2023-04-18T17:02:34.005Z,39.66
2023-04-18T17:05:04.336Z,39.04
2023-04-18T17:07:36.596Z,39.26
2023-04-18T17:10:09.835Z,39.70
2023-04-18T17:12:40.285Z,39.55
2023-04-18T17:15:11.500Z,39.62
2023-04-18T17:17:41.223Z,39.23
2023-04-18T17:20:12.610Z,39.24
2023-04-18T17:22:44.339Z,39.53
2023-04-18T17:25:14.305Z,39.43
2023-04-18T17:27:46.849Z,39.56
2023-04-18T17:30:16.892Z,39.11
2023-04-18T17:32:47.668Z,39.22
2023-04-18T17:35:17.778Z,38.97
2023-04-18T17:37:50.675Z,39.07
2023-04-18T17:40:21.017Z,39.64
2023-04-18T17:42:51.143Z,39.05
2023-04-18T17:45:22.239Z,39.25
2023-04-18T17:47:52.563Z,39.62
2023-04-18T17:50:23.003Z,39.06
2023-04-18T17:52:55.366Z,39.68
2023-04-18T17:55:27.015Z,39.32
2023-04-18T17:58:01.465Z,38.99
2023-04-18T18:00:33.237Z,39.19
2023-04-18T18:03:04.050Z,39.62
2023-04-18T18:05:33.735Z,39.27
2023-04-18T18:08:06.169Z,39.49
2023-04-18T18:10:37.063Z,39.59
2023-04-18T18:13:07.709Z,39.50
2023-04-18T18:15:37.990Z,39.48
2023-04-18T18:18:08.533Z,39.30
2023-04-18T18:20:38.734Z,39.59
2023-04-18T18:23:10.351Z,39.19
2023-04-18T18:25:40.630Z,39.17
2023-04-18T18:28:11.629Z,39.75
2023-04-18T18:30:41.932Z,39.63
2023-04-18T18:33:12.163Z,39.29
2023-04-18T18:35:42.386Z,39.16
2023-04-18T18:38:14.498Z,39.37
2023-04-18T18:40:44.657Z,39.23
2023-04-18T18:43:14.679Z,39.84
2023-04-18T18:45:45.201Z,39.55
2023-04-18T18:48:16.300Z,40.06
2023-04-18T18:50:46.012Z,39.82
2023-04-18T18:53:18.956Z,39.75
2023-04-18T18:55:48.765Z,40.21
2023-04-18T18:58:19.029Z,40.08
2023-04-18T19:00:49.322Z,39.96
2023-04-18T19:03:22.008Z,39.96
2023-04-18T19:05:52.376Z,40.31
2023-04-18T19:08:24.592Z,39.63
2023-04-18T19:10:54.665Z,39.57
2023-04-18T19:13:24.991Z,39.89
2023-04-18T19:15:55.284Z,39.78
2023-04-18T19:18:25.365Z,40.23
2023-04-18T19:20:55.553Z,39.81
2023-04-18T19:23:28.125Z,39.85
2023-04-18T19:25:58.272Z,40.42
2023-04-18T19:28:28.381Z,40.40
2023-04-18T19:30:58.336Z,40.00
2023-04-18T19:33:28.597Z,40.11
2023-04-18T19:35:58.386Z,40.20
2023-04-18T19:38:29.518Z,40.12
2023-04-18T19:40:59.493Z,40.36
2023-04-18T19:43:29.962Z,39.99
2023-04-18T19:45:59.636Z,40.12
2023-04-18T19:48:29.868Z,40.17
2023-04-18T19:51:00.196Z,40.36
2023-04-18T19:53:32.404Z,40.29
2023-04-18T19:56:02.027Z,40.43
2023-04-18T19:58:40.041Z,39.99
2023-04-18T20:01:10.373Z,40.35
2023-04-18T20:03:41.312Z,40.42
2023-04-18T20:06:12.596Z,40.65
2023-04-18T20:08:46.078Z,40.69
2023-04-18T20:11:16.518Z,40.50
2023-04-18T20:13:46.513Z,40.08
2023-04-18T20:16:17.334Z,40.53
2023-04-18T20:18:49.672Z,40.52
2023-04-18T20:21:19.379Z,40.46
2023-04-18T20:23:51.696Z,40.73
2023-04-18T20:26:21.945Z,40.13
2023-04-18T20:28:52.657Z,40.60
2023-04-18T20:31:23.223Z,40.44
2023-04-18T20:33:53.452Z,40.33
2023-04-18T20:36:24.544Z,40.80
2023-04-18T20:38:56.827Z,40.43
2023-04-18T20:41:27.297Z,40.71
2023-04-18T20:43:59.486Z,40.59
2023-04-18T20:46:29.684Z,40.94
2023-04-18T20:48:59.676Z,40.87
2023-04-18T20:51:30.284Z,40.47
2023-04-18T20:54:02.139Z,40.49
2023-04-18T20:56:32.530Z,40.79
2023-04-18T20:59:02.747Z,41.01
2023-04-18T21:01:33.612Z,40.75
2023-04-18T21:04:04.904Z,40.65
2023-04-18T21:06:35.839Z,40.73
2023-04-18T21:09:07.822Z,40.59
2023-04-18T21:11:37.712Z,40.87
2023-04-18T21:14:07.918Z,40.66
2023-04-18T21:16:39.875Z,40.63
2023-04-18T21:19:10.408Z,40.91
2023-04-18T21:21:40.709Z,40.78
2023-04-18T21:24:13.152Z,41.16
2023-04-18T21:26:43.925Z,40.96
2023-04-18T21:29:13.994Z,41.07
2023-04-18T21:31:43.627Z,40.65
2023-04-18T21:34:13.583Z,40.80
2023-04-18T21:36:43.990Z,40.99
2023-04-18T21:39:15.678Z,40.69
2023-04-18T21:41:46.315Z,40.50
2023-04-18T21:44:19.223Z,40.99
2023-04-18T21:46:49.395Z,41.04
2023-04-18T21:49:19.788Z,40.47
2023-04-18T21:51:50.608Z,40.67
2023-04-18T21:54:22.289Z,40.68
2023-04-18T21:56:52.291Z,40.27
2023-04-18T21:59:22.598Z,40.59
2023-04-18T22:01:52.309Z,40.43
2023-04-18T22:04:24.149Z,41.00
2023-04-18T22:06:55.940Z,40.68
2023-04-18T22:09:27.530Z,40.80
2023-04-18T22:11:58.810Z,40.29
2023-04-18T22:14:29.074Z,40.11
2023-04-18T22:16:59.883Z,40.36
2023-04-18T22:19:29.811Z,40.59
2023-04-18T22:21:59.934Z,40.47
2023-04-18T22:24:32.082Z,40.41
2023-04-18T22:27:03.235Z,40.52
2023-04-18T22:29:33.428Z,40.05
2023-04-18T22:32:03.370Z,40.48
2023-04-18T22:34:33.613Z,40.12
2023-04-18T22:37:03.252Z,39.96
2023-04-18T22:39:35.400Z,39.80
2023-04-18T22:42:05.845Z,39.58
2023-04-18T22:44:36.032Z,39.80
2023-04-18T22:47:05.833Z,39.84
2023-04-18T22:49:35.925Z,39.67
2023-04-18T22:52:06.504Z,39.56
2023-04-18T22:54:42.491Z,39.37
2023-04-18T22:57:12.717Z,39.76
2023-04-18T22:59:42.401Z,39.58
2023-04-18T23:02:13.131Z,39.21
2023-04-18T23:04:45.709Z,39.61
2023-04-18T23:07:15.897Z,39.38
2023-04-18T23:09:49.402Z,39.15
2023-04-18T23:12:19.641Z,39.04
2023-04-18T23:14:50.752Z,39.08
2023-04-18T23:17:20.283Z,39.13
2023-04-18T23:19:50.424Z,39.00
2023-04-18T23:22:20.820Z,39.05
2023-04-18T23:24:52.671Z,39.18
2023-04-18T23:27:22.976Z,39.04
2023-04-18T23:29:53.014Z,38.83
2023-04-18T23:32:23.498Z,38.87
2023-04-18T23:34:53.593Z,38.70
2023-04-18T23:37:23.637Z,38.75
2023-04-18T23:39:55.764Z,38.67
2023-04-18T23:42:26.954Z,38.67
2023-04-18T23:44:58.195Z,38.70
2023-04-18T23:47:28.144Z,38.72
2023-04-18T23:49:57.790Z,38.55
2023-04-18T23:52:28.089Z,38.63
2023-04-18T23:55:02.991Z,38.29
2023-04-18T23:57:33.040Z,38.36
